createdAt,value
2019-03-24T00:00:50.587Z,67.71
2019-03-24T00:01:50.624Z,67.71
2019-03-24T00:02:50.649Z,67.81
2019-03-24T00:03:50.726Z,67.81
2019-03-24T00:04:51.007Z,67.81
2019-03-24T00:05:50.795Z,67.81
2019-03-24T00:06:50.821Z,67.71
2019-03-24T00:07:50.810Z,67.71
2019-03-24T00:08:50.839Z,67.71
2019-03-24T00:09:50.869Z,67.71
2019-03-24T00:10:50.901Z,67.81
2019-03-24T00:11:51.284Z,67.81
2019-03-24T00:12:51.022Z,67.81
2019-03-24T00:13:51.014Z,67.81
2019-03-24T00:14:51.026Z,67.81
2019-03-24T00:15:51.115Z,67.71
2019-03-24T00:16:51.101Z,67.71
2019-03-24T00:17:51.174Z,67.71
2019-03-24T00:18:51.462Z,68.19
2019-03-24T00:19:51.187Z,68.19
2019-03-24T00:20:51.223Z,68.29
2019-03-24T00:21:51.312Z,68.19
2019-03-24T00:22:51.336Z,68.29
2019-03-24T00:23:51.332Z,68.00
2019-03-24T00:24:51.352Z,68.19
2019-03-24T00:25:51.689Z,68.19
2019-03-24T00:26:51.414Z,68.29
2019-03-24T00:27:51.507Z,68.48
2019-03-24T00:28:51.531Z,68.29
2019-03-24T00:29:51.518Z,68.38
2019-03-24T00:30:51.545Z,68.38
2019-03-24T00:31:51.576Z,68.38
2019-03-24T00:32:51.964Z,68.38
2019-03-24T00:33:51.692Z,68.38
2019-03-24T00:34:51.725Z,68.29
2019-03-24T00:35:51.706Z,68.29
2019-03-24T00:36:51.746Z,68.29
2019-03-24T00:37:51.767Z,68.29
2019-03-24T00:38:51.861Z,68.29
2019-03-24T00:39:52.133Z,68.29
2019-03-24T00:40:51.918Z,68.29
2019-03-24T00:41:51.903Z,68.29
2019-03-24T00:42:51.977Z,68.29
2019-03-24T00:43:51.961Z,68.38
2019-03-24T00:44:52.042Z,68.19
2019-03-24T00:45:52.325Z,68.38
2019-03-24T00:46:52.060Z,68.29
2019-03-24T00:47:52.235Z,68.48
2019-03-24T00:48:52.169Z,68.19
2019-03-24T00:49:52.154Z,68.29
2019-03-24T00:50:52.186Z,68.19
2019-03-24T00:51:52.518Z,68.19
2019-03-24T00:52:52.250Z,68.29
2019-03-24T00:53:52.335Z,68.19
2019-03-24T00:54:52.313Z,68.19
2019-03-24T00:55:52.345Z,68.29
2019-03-24T00:56:52.437Z,68.29
2019-03-24T00:57:52.712Z,68.38
2019-03-24T00:58:52.494Z,68.29
2019-03-24T00:59:52.476Z,68.38
2019-03-24T01:00:52.511Z,68.29
2019-03-24T01:01:52.587Z,68.29
2019-03-24T01:02:52.632Z,68.38
2019-03-24T01:03:52.606Z,68.48
2019-03-24T01:04:52.939Z,68.19
2019-03-24T01:05:52.675Z,68.19
2019-03-24T01:06:52.743Z,68.38
2019-03-24T01:07:52.732Z,68.29
2019-03-24T01:08:52.767Z,68.29
2019-03-24T01:09:52.790Z,68.19
2019-03-24T01:10:52.875Z,68.58
2019-03-24T01:11:53.155Z,68.68
2019-03-24T01:12:52.891Z,68.68
2019-03-24T01:13:52.920Z,68.68
2019-03-24T01:14:52.953Z,68.68
2019-03-24T01:15:52.983Z,68.77
2019-03-24T01:16:53.072Z,68.68
2019-03-24T01:17:53.104Z,68.48
2019-03-24T01:18:53.383Z,68.68
2019-03-24T01:19:53.120Z,68.58
2019-03-24T01:20:53.197Z,68.38
2019-03-24T01:21:53.227Z,68.38
2019-03-24T01:22:53.257Z,68.58
2019-03-24T01:23:53.250Z,68.38
2019-03-24T01:24:53.273Z,68.38
2019-03-24T01:25:53.654Z,69.06
2019-03-24T01:26:53.387Z,68.68
2019-03-24T01:27:53.367Z,68.77
2019-03-24T01:28:53.451Z,68.77
2019-03-24T01:29:53.434Z,69.15
2019-03-24T01:30:53.471Z,69.35
2019-03-24T01:31:53.552Z,69.35
2019-03-24T01:32:53.983Z,69.35
2019-03-24T01:34:53.594Z,68.87
2019-03-24T01:35:53.633Z,68.96
2019-03-24T01:36:53.662Z,68.87
2019-03-24T01:38:53.779Z,69.06
2019-03-24T01:39:54.063Z,68.68
2019-03-24T01:40:53.845Z,68.96
2019-03-24T01:41:53.872Z,69.15
2019-03-24T01:42:53.851Z,68.77
2019-03-24T01:43:53.931Z,69.25
2019-03-24T01:44:53.970Z,69.06
2019-03-24T01:45:58.592Z,69.06
2019-03-24T01:46:54.282Z,69.25
2019-03-24T01:47:54.061Z,69.25
2019-03-24T01:48:54.090Z,69.15
2019-03-24T01:49:54.072Z,69.06
2019-03-24T01:50:54.103Z,68.96
2019-03-24T01:51:54.200Z,69.15
2019-03-24T01:52:54.223Z,69.15
2019-03-24T01:53:54.511Z,69.25
2019-03-24T01:54:54.288Z,69.15
2019-03-24T01:55:54.267Z,68.77
2019-03-24T01:56:54.355Z,68.68
2019-03-24T01:57:54.382Z,68.68
2019-03-24T01:58:54.361Z,69.15
2019-03-24T01:59:54.445Z,69.15
2019-03-24T02:00:54.777Z,69.15
2019-03-24T02:01:54.456Z,68.68
2019-03-24T02:03:54.526Z,68.58
2019-03-24T02:04:54.557Z,68.96
2019-03-24T02:05:54.584Z,68.96
2019-03-24T02:06:54.633Z,68.77
2019-03-24T02:07:54.954Z,69.25
2019-03-24T02:08:54.732Z,69.06
2019-03-24T02:09:54.713Z,69.25
2019-03-24T02:10:54.813Z,69.25
2019-03-24T02:11:54.777Z,68.96
2019-03-24T02:12:54.867Z,68.96
2019-03-24T02:13:54.896Z,68.58
2019-03-24T02:14:55.173Z,68.87
2019-03-24T02:15:54.956Z,69.06
2019-03-24T02:16:54.992Z,69.06
2019-03-24T02:17:54.972Z,68.96
2019-03-24T02:18:55.006Z,69.25
2019-03-24T02:19:55.087Z,69.15
2019-03-24T02:20:55.118Z,69.25
2019-03-24T02:21:55.403Z,68.68
2019-03-24T02:22:55.185Z,69.15
2019-03-24T02:23:55.168Z,68.77
2019-03-24T02:24:55.247Z,68.77
2019-03-24T02:25:55.224Z,69.15
2019-03-24T02:26:55.264Z,68.77
2019-03-24T02:27:55.340Z,69.15
2019-03-24T02:28:55.628Z,68.77
2019-03-24T02:29:56.259Z,68.77
2019-03-24T02:30:55.392Z,68.96
2019-03-24T02:31:55.470Z,69.25
2019-03-24T02:32:55.504Z,68.77
2019-03-24T02:33:55.490Z,68.58
2019-03-24T02:34:55.823Z,68.58
2019-03-24T02:35:55.568Z,69.15
2019-03-24T02:36:55.640Z,68.68
2019-03-24T02:37:55.675Z,68.68
2019-03-24T02:38:55.650Z,69.25
2019-03-24T02:39:55.672Z,68.87
2019-03-24T02:40:56.006Z,69.25
2019-03-24T02:41:55.800Z,68.96
2019-03-24T02:42:55.775Z,69.15
2019-03-24T02:43:55.810Z,69.25
2019-03-24T02:44:55.890Z,68.96
2019-03-24T02:45:55.915Z,69.15
2019-03-24T02:46:56.200Z,69.15
2019-03-24T02:47:55.982Z,69.15
2019-03-24T02:48:55.969Z,69.25
2019-03-24T02:49:56.014Z,69.15
2019-03-24T02:50:56.046Z,68.87
2019-03-24T02:51:56.066Z,69.06
2019-03-24T02:52:56.145Z,69.25
2019-03-24T02:53:56.423Z,69.15
2019-03-24T02:54:56.208Z,69.25
2019-03-24T02:55:56.186Z,69.15
2019-03-24T02:56:56.269Z,69.25
2019-03-24T02:58:56.284Z,69.25
2019-03-24T02:59:56.364Z,69.15
2019-03-24T03:00:56.657Z,68.77
2019-03-24T03:01:56.395Z,68.87
2019-03-24T03:02:56.412Z,68.96
2019-03-24T03:03:56.456Z,69.25
2019-03-24T03:04:56.526Z,69.25
2019-03-24T03:05:56.508Z,69.25
2019-03-24T03:06:56.549Z,69.15
2019-03-24T03:07:56.877Z,69.15
2019-03-24T03:08:56.665Z,69.15
2019-03-24T03:09:56.635Z,69.25
2019-03-24T03:10:56.736Z,68.96
2019-03-24T03:11:56.704Z,69.25
2019-03-24T03:12:56.733Z,69.45
2019-03-24T03:13:56.810Z,69.15
2019-03-24T03:14:57.145Z,69.64
2019-03-24T03:15:56.831Z,69.35
2019-03-24T03:16:56.869Z,69.45
2019-03-24T03:17:56.952Z,69.54
2019-03-24T03:18:56.925Z,69.54
2019-03-24T03:19:57.003Z,69.64
2019-03-24T03:20:56.988Z,70.02
2019-03-24T03:21:57.320Z,69.45
2019-03-24T03:22:57.071Z,69.35
2019-03-24T03:23:57.092Z,69.25
2019-03-24T03:24:57.162Z,69.15
2019-03-24T03:25:57.151Z,69.06
2019-03-24T03:26:57.238Z,69.25
2019-03-24T03:27:57.215Z,69.35
2019-03-24T03:28:57.595Z,69.45
2019-03-24T03:29:57.272Z,69.15
2019-03-24T03:30:57.359Z,69.25
2019-03-24T03:31:57.345Z,69.45
2019-03-24T03:32:57.375Z,69.45
2019-03-24T03:33:57.414Z,69.73
2019-03-24T03:34:57.502Z,69.25
2019-03-24T03:35:57.778Z,69.25
2019-03-24T03:36:57.558Z,69.25
2019-03-24T03:37:57.582Z,69.35
2019-03-24T03:38:57.563Z,69.45
2019-03-24T03:39:58.520Z,69.35
2019-03-24T03:40:57.633Z,69.35
2019-03-24T03:41:57.670Z,69.45
2019-03-24T03:43:58.025Z,69.64
2019-03-24T03:44:57.805Z,69.35
2019-03-24T03:45:57.835Z,69.06
2019-03-24T03:46:57.820Z,69.45
2019-03-24T03:47:57.862Z,69.35
2019-03-24T03:48:57.930Z,69.45
2019-03-24T03:49:57.918Z,69.06
2019-03-24T03:50:58.300Z,69.64
2019-03-24T03:51:58.030Z,69.73
2019-03-24T03:52:58.016Z,69.64
2019-03-24T03:53:59.323Z,69.15
2019-03-24T03:54:58.075Z,69.06
2019-03-24T03:55:58.167Z,69.64
2019-03-24T03:56:58.192Z,69.15
2019-03-24T03:57:58.473Z,69.25
2019-03-24T03:58:58.277Z,69.45
2019-03-24T03:59:58.241Z,69.35
2019-03-24T04:00:58.290Z,69.45
2019-03-24T04:01:58.358Z,69.45
2019-03-24T04:02:58.388Z,69.64
2019-03-24T04:03:58.389Z,69.73
2019-03-24T04:04:58.690Z,69.45
2019-03-24T04:05:58.584Z,69.45
2019-03-24T04:06:58.457Z,69.73
2019-03-24T04:07:58.506Z,69.64
2019-03-24T04:08:58.522Z,69.64
2019-03-24T04:09:58.607Z,69.73
2019-03-24T04:10:58.642Z,69.73
2019-03-24T04:11:58.913Z,69.45
2019-03-24T04:12:58.706Z,69.64
2019-03-24T04:14:58.713Z,69.15
2019-03-24T04:15:58.798Z,69.15
2019-03-24T04:17:06.919Z,69.15
2019-03-24T04:17:58.858Z,69.73
2019-03-24T04:18:59.222Z,69.45
2019-03-24T04:19:58.900Z,69.73
2019-03-24T04:20:58.962Z,69.15
2019-03-24T04:21:58.934Z,69.54
2019-03-24T04:22:58.971Z,69.35
2019-03-24T04:24:59.092Z,70.21
2019-03-24T04:25:59.376Z,69.73
2019-03-24T04:26:59.142Z,69.73
2019-03-24T04:27:59.188Z,70.21
2019-03-24T04:28:59.208Z,70.02
2019-03-24T04:29:59.185Z,69.83
2019-03-24T04:30:59.222Z,69.93
2019-03-24T04:31:59.265Z,69.73
2019-03-24T04:32:59.593Z,69.93
2019-03-24T04:33:59.365Z,70.21
2019-03-24T04:34:59.369Z,69.54
2019-03-24T04:35:59.384Z,70.21
2019-03-24T04:36:59.470Z,69.64
2019-03-24T04:37:59.448Z,70.12
2019-03-24T04:38:59.543Z,69.25
2019-03-24T04:39:59.821Z,69.73
2019-03-24T04:40:59.608Z,69.64
2019-03-24T04:41:59.634Z,70.12
2019-03-24T04:42:59.609Z,69.73
2019-03-24T04:43:59.651Z,69.64
2019-03-24T04:44:59.726Z,69.54
2019-03-24T04:46:00.002Z,69.64
2019-03-24T04:46:59.728Z,69.51
2019-03-24T04:47:59.763Z,69.93
2019-03-24T04:50:59.914Z,70.12
2019-03-24T04:52:00.247Z,69.83
2019-03-24T04:52:59.984Z,69.83
2019-03-24T04:53:59.963Z,69.83
2019-03-24T04:55:00.037Z,69.73
2019-03-24T04:56:00.018Z,69.93
2019-03-24T04:57:00.109Z,69.64
2019-03-24T04:58:00.449Z,69.54
2019-03-24T04:59:00.118Z,69.54
2019-03-24T05:00:00.441Z,69.54
2019-03-24T05:01:00.182Z,69.35
2019-03-24T05:02:00.206Z,69.54
2019-03-24T05:03:00.250Z,68.93
2019-03-24T05:04:00.324Z,69.35
2019-03-24T05:05:00.608Z,69.25
2019-03-24T05:06:00.390Z,69.25
2019-03-24T05:07:00.370Z,69.25
2019-03-24T05:08:00.407Z,69.54
2019-03-24T05:09:00.491Z,68.96
2019-03-24T05:10:00.518Z,69.25
2019-03-24T05:11:00.499Z,69.25
2019-03-24T05:12:00.886Z,69.25
2019-03-24T05:14:00.594Z,69.93
2019-03-24T05:15:00.671Z,69.93
2019-03-24T05:16:00.660Z,69.73
2019-03-24T05:17:00.734Z,69.93
2019-03-24T05:18:00.733Z,69.70
2019-03-24T05:19:01.053Z,70.12
2019-03-24T05:20:00.842Z,69.83
2019-03-24T05:21:00.866Z,70.02
2019-03-24T05:22:00.848Z,70.02
2019-03-24T05:23:00.882Z,69.99
2019-03-24T05:24:00.908Z,69.93
2019-03-24T05:25:00.949Z,69.99
2019-03-24T05:26:01.323Z,69.93
2019-03-24T05:27:01.012Z,69.99
2019-03-24T05:28:01.082Z,69.70
2019-03-24T05:29:01.129Z,69.89
2019-03-24T05:30:01.098Z,69.99
2019-03-24T05:31:01.189Z,70.02
2019-03-24T05:32:01.191Z,69.83
2019-03-24T05:33:01.552Z,69.89
2019-03-24T05:34:01.231Z,69.54
2019-03-24T05:35:01.259Z,69.89
2019-03-24T05:36:01.344Z,69.79
2019-03-24T05:37:01.326Z,69.70
2019-03-24T05:38:01.354Z,69.89
2019-03-24T05:39:01.444Z,69.89
2019-03-24T05:40:01.723Z,69.79
2019-03-24T05:41:01.455Z,69.41
2019-03-24T05:42:01.846Z,69.51
2019-03-24T05:43:01.573Z,69.93
2019-03-24T05:44:01.654Z,69.89
2019-03-24T05:45:01.641Z,69.60
2019-03-24T05:46:01.608Z,69.99
2019-03-24T05:47:01.990Z,69.89
2019-03-24T05:48:01.720Z,69.41
2019-03-24T05:49:01.759Z,69.64
2019-03-24T05:50:01.739Z,69.51
2019-03-24T05:51:01.789Z,69.89
2019-03-24T05:52:01.851Z,70.09
2019-03-24T05:53:01.887Z,69.89
2019-03-24T05:54:02.217Z,69.31
2019-03-24T05:55:01.898Z,70.18
2019-03-24T05:56:01.925Z,70.09
2019-03-24T05:57:01.958Z,69.79
2019-03-24T05:58:01.992Z,69.89
2019-03-24T05:59:02.023Z,69.89
2019-03-24T06:00:02.055Z,69.41
2019-03-24T06:01:02.386Z,69.51
2019-03-24T06:02:02.171Z,70.09
2019-03-24T06:03:02.152Z,70.28
2019-03-24T06:04:02.188Z,70.28
2019-03-24T06:05:02.261Z,70.09
2019-03-24T06:06:02.245Z,70.76
2019-03-24T06:07:02.325Z,70.47
2019-03-24T06:08:02.683Z,70.47
2019-03-24T06:09:02.397Z,70.47
2019-03-24T06:10:02.427Z,70.66
2019-03-24T06:11:02.403Z,70.28
2019-03-24T06:12:02.443Z,70.18
2019-03-24T06:13:02.468Z,70.09
2019-03-24T06:14:02.553Z,70.09
2019-03-24T06:15:02.889Z,70.09
2019-03-24T06:16:02.566Z,70.31
2019-03-24T06:17:02.596Z,70.09
2019-03-24T06:18:02.684Z,70.09
2019-03-24T06:19:02.662Z,70.37
2019-03-24T06:20:02.744Z,70.37
2019-03-24T06:21:02.792Z,70.37
2019-03-24T06:22:03.063Z,70.28
2019-03-24T06:23:02.783Z,70.37
2019-03-24T06:24:02.872Z,70.28
2019-03-24T06:25:02.855Z,70.28
2019-03-24T06:26:02.882Z,70.31
2019-03-24T06:27:02.966Z,70.28
2019-03-24T06:28:02.940Z,70.09
2019-03-24T06:29:03.326Z,70.18
2019-03-24T06:30:03.010Z,70.18
2019-03-24T06:31:03.094Z,70.28
2019-03-24T06:32:03.079Z,70.18
2019-03-24T06:33:03.118Z,70.28
2019-03-24T06:34:03.187Z,70.18
2019-03-24T06:35:03.521Z,70.28
2019-03-24T06:36:03.250Z,70.18
2019-03-24T06:37:03.279Z,70.18
2019-03-24T06:38:03.259Z,70.18
2019-03-24T06:39:03.300Z,69.79
2019-03-24T06:40:03.343Z,70.18
2019-03-24T06:41:03.662Z,70.37
2019-03-24T06:42:03.441Z,70.37
2019-03-24T06:43:03.438Z,70.18
2019-03-24T06:44:03.455Z,70.28
2019-03-24T06:45:03.489Z,70.41
2019-03-24T06:46:03.570Z,70.09
2019-03-24T06:47:03.846Z,70.09
2019-03-24T06:48:03.582Z,70.28
2019-03-24T06:49:03.664Z,70.28
2019-03-24T06:50:03.647Z,70.18
2019-03-24T06:51:03.681Z,70.18
2019-03-24T06:52:03.757Z,70.28
2019-03-24T06:53:03.742Z,70.18
2019-03-24T06:54:04.118Z,70.28
2019-03-24T06:55:03.816Z,70.09
2019-03-24T06:56:03.831Z,70.09
2019-03-24T06:57:03.865Z,70.21
2019-03-24T06:58:03.960Z,70.18
2019-03-24T06:59:03.935Z,70.28
2019-03-24T07:00:03.981Z,70.09
2019-03-24T07:01:04.341Z,70.28
2019-03-24T07:02:04.031Z,70.28
2019-03-24T07:03:04.113Z,69.79
2019-03-24T07:04:04.092Z,70.09
2019-03-24T07:05:04.195Z,70.09
2019-03-24T07:06:04.150Z,70.28
2019-03-24T07:07:04.205Z,69.89
2019-03-24T07:08:04.565Z,70.31
2019-03-24T07:09:04.250Z,70.50
2019-03-24T07:10:04.295Z,69.79
2019-03-24T07:11:11.406Z,69.99
2019-03-24T07:12:04.339Z,69.99
2019-03-24T07:14:04.456Z,70.28
2019-03-24T07:15:04.760Z,70.66
2019-03-24T07:16:04.478Z,70.47
2019-03-24T07:17:04.552Z,70.28
2019-03-24T07:18:08.687Z,70.09
2019-03-24T07:19:04.570Z,70.37
2019-03-24T07:20:04.594Z,70.56
2019-03-24T07:21:04.624Z,70.70
2019-03-24T07:22:07.230Z,70.41
2019-03-24T07:23:04.744Z,70.66
2019-03-24T07:24:04.732Z,70.28
2019-03-24T07:25:04.756Z,70.12
2019-03-24T07:26:04.796Z,70.28
2019-03-24T07:27:04.820Z,70.41
2019-03-24T07:28:04.896Z,70.21
2019-03-24T07:29:05.238Z,70.09
2019-03-24T07:30:04.985Z,70.28
2019-03-24T07:31:04.953Z,70.18
2019-03-24T07:32:04.981Z,69.93
2019-03-24T07:33:05.014Z,70.21
2019-03-24T07:34:05.049Z,70.50
2019-03-24T07:35:05.152Z,69.93
2019-03-24T07:36:05.513Z,69.83
2019-03-24T07:37:05.207Z,69.83
2019-03-24T07:38:05.228Z,69.83
2019-03-24T07:39:05.202Z,69.83
2019-03-24T07:41:05.346Z,70.12
2019-03-24T07:42:05.673Z,70.12
2019-03-24T07:43:05.688Z,69.83
2019-03-24T07:44:05.414Z,69.54
2019-03-24T07:45:05.440Z,69.93
2019-03-24T07:46:05.479Z,69.93
2019-03-24T07:47:05.461Z,69.93
2019-03-24T07:48:05.500Z,69.93
2019-03-24T07:49:05.518Z,69.73
2019-03-24T07:50:05.852Z,70.02
2019-03-24T07:51:05.638Z,69.93
2019-03-24T07:52:05.619Z,69.45
2019-03-24T07:53:05.646Z,69.64
2019-03-24T07:54:05.681Z,69.54
2019-03-24T07:55:05.714Z,69.35
2019-03-24T07:56:05.790Z,69.45
2019-03-24T07:57:06.134Z,69.54
2019-03-24T07:58:05.859Z,69.35
2019-03-24T07:59:05.893Z,69.45
2019-03-24T08:00:05.872Z,69.54
2019-03-24T08:01:06.056Z,69.15
2019-03-24T08:02:05.931Z,69.25
2019-03-24T08:03:06.018Z,69.15
2019-03-24T08:04:06.344Z,69.15
2019-03-24T08:05:06.080Z,69.15
2019-03-24T08:06:06.067Z,69.45
2019-03-24T08:07:06.092Z,69.45
2019-03-24T08:08:06.172Z,69.15
2019-03-24T08:10:06.343Z,69.15
2019-03-24T08:11:06.536Z,69.06
2019-03-24T08:12:06.254Z,69.45
2019-03-24T08:13:06.440Z,69.45
2019-03-24T08:14:06.320Z,69.54
2019-03-24T08:15:06.350Z,69.45
2019-03-24T08:16:06.383Z,69.54
2019-03-24T08:18:06.497Z,69.54
2019-03-24T08:19:06.832Z,69.64
2019-03-24T08:21:06.590Z,68.96
2019-03-24T08:22:06.627Z,69.06
2019-03-24T08:23:06.611Z,69.25
2019-03-24T08:24:06.705Z,69.25
2019-03-24T08:25:06.683Z,68.77
2019-03-24T08:26:07.011Z,69.06
2019-03-24T08:31:06.913Z,68.68
2019-03-24T08:32:06.951Z,68.87
2019-03-24T08:33:07.397Z,68.77
2019-03-24T08:34:07.007Z,68.77
2019-03-24T08:35:06.994Z,68.68
2019-03-24T08:36:07.037Z,69.25
2019-03-24T08:37:07.100Z,68.77
2019-03-24T08:38:07.085Z,69.06
2019-03-24T08:39:07.164Z,69.15
2019-03-24T08:40:07.498Z,68.77
2019-03-24T08:41:07.235Z,68.77
2019-03-24T08:42:07.266Z,68.68
2019-03-24T08:43:07.260Z,68.77
2019-03-24T08:44:07.330Z,68.77
2019-03-24T08:45:07.358Z,68.29
2019-03-24T08:46:07.347Z,68.29
2019-03-24T08:47:07.728Z,68.38
2019-03-24T08:49:07.488Z,68.10
2019-03-24T08:50:07.532Z,68.23
2019-03-24T08:52:07.538Z,68.42
2019-03-24T08:53:07.973Z,68.68
2019-03-24T08:55:07.689Z,68.42
2019-03-24T08:56:07.671Z,68.52
2019-03-24T08:57:07.748Z,68.71
2019-03-24T08:58:07.780Z,68.19
2019-03-24T08:59:08.115Z,68.32
2019-03-24T09:00:07.801Z,68.32
2019-03-24T09:01:07.989Z,68.13
2019-03-24T09:02:07.861Z,68.32
2019-03-24T09:03:07.896Z,67.74
2019-03-24T09:04:07.976Z,67.65
2019-03-24T09:05:08.305Z,67.65
2019-03-24T09:06:08.036Z,67.65
2019-03-24T09:08:08.057Z,67.65
2019-03-24T09:09:08.087Z,67.65
2019-03-24T09:10:08.172Z,67.84
2019-03-24T09:11:08.160Z,67.36
2019-03-24T09:13:08.567Z,67.36
2019-03-24T09:14:08.246Z,67.36
2019-03-24T09:15:08.325Z,67.36
2019-03-24T09:16:08.375Z,67.26
2019-03-24T09:17:08.412Z,67.07
2019-03-24T09:19:08.487Z,66.97
2019-03-24T09:21:08.826Z,66.59
2019-03-24T09:22:08.557Z,66.69
2019-03-24T09:23:10.583Z,66.69
2019-03-24T09:24:08.606Z,66.97
2019-03-24T09:25:08.658Z,67.07
2019-03-24T09:26:08.641Z,67.07
2019-03-24T09:27:09.021Z,67.07
2019-03-24T09:28:09.291Z,67.26
2019-03-24T09:29:08.739Z,67.10
2019-03-24T09:30:08.765Z,66.97
2019-03-24T09:31:08.799Z,67.16
2019-03-24T09:32:08.882Z,66.97
2019-03-24T09:33:08.917Z,67.16
2019-03-24T09:34:09.242Z,66.72
2019-03-24T09:35:08.983Z,66.39
2019-03-24T09:36:09.003Z,67.07
2019-03-24T09:37:09.045Z,67.07
2019-03-24T09:38:09.089Z,67.10
2019-03-24T09:39:09.057Z,66.82
2019-03-24T09:40:09.088Z,66.62
2019-03-24T09:41:09.482Z,66.52
2019-03-24T09:42:09.214Z,66.62
2019-03-24T09:43:09.190Z,66.72
2019-03-24T09:44:09.231Z,66.62
2019-03-24T09:45:09.307Z,66.72
2019-03-24T09:46:09.288Z,66.62
2019-03-24T09:47:09.369Z,66.43
2019-03-24T09:48:09.702Z,66.24
2019-03-24T09:49:09.438Z,66.43
2019-03-24T09:50:09.419Z,66.52
2019-03-24T09:52:09.534Z,66.24
2019-03-24T09:53:09.519Z,66.91
2019-03-24T09:54:09.553Z,66.82
2019-03-24T09:55:09.928Z,66.04
2019-03-24T09:56:09.618Z,66.04
2019-03-24T09:57:09.694Z,66.24
2019-03-24T09:58:09.677Z,66.04
2019-03-24T09:59:09.716Z,65.75
2019-03-24T10:00:09.799Z,65.37
2019-03-24T10:01:09.831Z,65.66
2019-03-24T10:02:10.159Z,65.66
2019-03-24T10:03:09.844Z,65.47
2019-03-24T10:04:09.877Z,65.95
2019-03-24T10:05:09.913Z,65.47
2019-03-24T10:06:09.995Z,65.37
2019-03-24T10:07:09.978Z,66.04
2019-03-24T10:08:10.064Z,66.33
2019-03-24T10:09:10.391Z,66.33
2019-03-24T10:10:10.221Z,66.82
2019-03-24T10:11:10.150Z,66.82
2019-03-24T10:12:10.144Z,66.24
2019-03-24T10:13:10.236Z,65.95
2019-03-24T10:14:10.256Z,66.17
2019-03-24T10:15:10.253Z,65.47
2019-03-24T10:16:10.619Z,66.04
2019-03-24T10:17:10.312Z,66.04
2019-03-24T10:18:10.340Z,66.24
2019-03-24T10:19:14.196Z,66.04
2019-03-24T10:20:10.408Z,66.52
2019-03-24T10:21:10.483Z,66.62
2019-03-24T10:22:10.461Z,66.82
2019-03-24T10:23:10.853Z,66.04
2019-03-24T10:24:10.577Z,65.95
2019-03-24T10:25:10.656Z,66.46
2019-03-24T10:26:10.597Z,66.91
2019-03-24T10:27:10.634Z,66.66
2019-03-24T10:28:10.710Z,66.43
2019-03-24T10:29:10.753Z,66.52
2019-03-24T10:30:11.082Z,66.04
2019-03-24T10:31:10.766Z,66.17
2019-03-24T10:32:10.841Z,65.59
2019-03-24T10:34:10.861Z,65.69
2019-03-24T10:35:10.939Z,65.56
2019-03-24T10:36:10.930Z,65.27
2019-03-24T10:37:11.314Z,65.37
2019-03-24T10:38:11.040Z,65.47
2019-03-24T10:39:11.078Z,65.69
2019-03-24T10:40:11.066Z,65.66
2019-03-24T10:41:11.142Z,65.50
2019-03-24T10:42:11.176Z,65.50
2019-03-24T10:43:11.168Z,65.66
2019-03-24T10:45:11.575Z,65.69
2019-03-24T10:47:11.345Z,65.59
2019-03-24T10:48:11.323Z,65.88
2019-03-24T10:49:11.359Z,66.17
2019-03-24T10:50:11.387Z,66.08
2019-03-24T10:51:11.469Z,66.08
2019-03-24T10:52:11.799Z,66.27
2019-03-24T10:53:11.535Z,65.50
2019-03-24T10:54:11.572Z,65.78
2019-03-24T10:55:11.555Z,65.78
2019-03-24T10:56:11.632Z,65.98
2019-03-24T10:57:11.620Z,65.59
2019-03-24T10:58:11.723Z,65.69
2019-03-24T10:59:12.042Z,65.78
2019-03-24T11:00:11.713Z,65.50
2019-03-24T11:01:11.800Z,66.36
2019-03-24T11:02:11.797Z,66.27
2019-03-24T11:03:11.865Z,66.36
2019-03-24T11:04:11.852Z,66.17
2019-03-24T11:05:11.937Z,65.98
2019-03-24T11:06:12.213Z,66.27
2019-03-24T11:07:11.944Z,65.69
2019-03-24T11:08:12.038Z,65.69
2019-03-24T11:09:12.078Z,65.50
2019-03-24T11:10:12.049Z,65.59
2019-03-24T11:11:12.084Z,66.17
2019-03-24T11:12:12.115Z,66.27
2019-03-24T11:13:12.144Z,66.08
2019-03-24T11:14:12.226Z,65.88
2019-03-24T11:15:12.230Z,65.50
2019-03-24T11:16:12.262Z,65.50
2019-03-24T11:17:12.286Z,65.50
2019-03-24T11:18:12.365Z,65.30
2019-03-24T11:19:12.701Z,65.78
2019-03-24T11:20:12.380Z,65.59
2019-03-24T11:21:12.463Z,65.69
2019-03-24T11:22:12.496Z,65.59
2019-03-24T11:23:12.532Z,65.69
2019-03-24T11:24:12.522Z,65.69
2019-03-24T11:25:12.897Z,65.88
2019-03-24T11:26:12.623Z,66.17
2019-03-24T11:27:12.613Z,65.88
2019-03-24T11:28:12.650Z,65.69
2019-03-24T11:29:12.730Z,65.88
2019-03-24T11:30:12.771Z,65.69
2019-03-24T11:31:13.045Z,65.78
2019-03-24T11:32:12.829Z,65.50
2019-03-24T11:33:12.864Z,65.69
2019-03-24T11:34:12.841Z,65.20
2019-03-24T11:35:12.925Z,65.30
2019-03-24T11:36:12.964Z,65.50
2019-03-24T11:37:12.992Z,65.69
2019-03-24T11:38:13.286Z,65.78
2019-03-24T11:39:13.005Z,65.59
2019-03-24T11:40:13.098Z,65.20
2019-03-24T11:41:13.121Z,65.40
2019-03-24T11:42:13.115Z,64.82
2019-03-24T11:43:13.188Z,65.11
2019-03-24T11:44:13.176Z,65.40
2019-03-24T11:45:13.555Z,64.53
2019-03-24T11:46:13.239Z,64.82
2019-03-24T11:47:13.322Z,65.11
2019-03-24T11:48:13.366Z,65.11
2019-03-24T11:49:13.401Z,64.53
2019-03-24T11:50:13.430Z,64.92
2019-03-24T11:51:13.453Z,64.72
2019-03-24T11:52:13.745Z,65.11
2019-03-24T11:53:13.475Z,65.11
2019-03-24T11:54:13.551Z,65.01
2019-03-24T11:55:13.589Z,64.53
2019-03-24T11:56:13.571Z,64.63
2019-03-24T11:57:13.605Z,65.40
2019-03-24T11:58:13.636Z,65.50
2019-03-24T11:59:14.024Z,65.20
2019-03-24T12:00:13.706Z,65.50
2019-03-24T12:01:13.743Z,64.53
2019-03-24T12:02:13.780Z,64.82
2019-03-24T12:03:13.857Z,65.20
2019-03-24T12:04:13.886Z,64.37
2019-03-24T12:05:13.876Z,64.34
2019-03-24T12:06:15.061Z,64.08
2019-03-24T12:07:13.944Z,64.37
2019-03-24T12:08:13.972Z,64.08
2019-03-24T12:09:14.058Z,63.76
2019-03-24T12:10:14.093Z,63.12
2019-03-24T12:11:14.075Z,63.40
2019-03-24T12:12:14.107Z,63.89
2019-03-24T12:13:14.506Z,64.37
2019-03-24T12:14:14.175Z,64.37
2019-03-24T12:15:14.252Z,64.18
2019-03-24T12:16:14.244Z,64.08
2019-03-24T12:17:14.322Z,64.18
2019-03-24T12:18:14.312Z,63.79
2019-03-24T12:19:14.450Z,63.02
2019-03-24T12:20:14.728Z,63.40
2019-03-24T12:21:14.459Z,63.31
2019-03-24T12:22:14.493Z,63.89
2019-03-24T12:23:14.522Z,63.70
2019-03-24T12:24:14.663Z,63.89
2019-03-24T12:25:14.591Z,64.08
2019-03-24T12:26:14.726Z,64.37
2019-03-24T12:27:14.908Z,63.98
2019-03-24T12:28:14.800Z,63.21
2019-03-24T12:29:14.730Z,63.12
2019-03-24T12:30:14.763Z,63.02
2019-03-24T12:31:14.749Z,63.21
2019-03-24T12:32:15.660Z,63.79
2019-03-24T12:33:14.872Z,63.02
2019-03-24T12:34:15.194Z,63.02
2019-03-24T12:35:14.925Z,63.31
2019-03-24T12:36:14.956Z,63.98
2019-03-24T12:37:15.006Z,63.50
2019-03-24T12:38:14.980Z,63.79
2019-03-24T12:39:15.013Z,63.60
2019-03-24T12:40:15.045Z,63.79
2019-03-24T12:41:15.430Z,63.98
2019-03-24T12:45:15.306Z,63.98
2019-03-24T12:46:15.302Z,63.31
2019-03-24T12:47:15.337Z,63.31
2019-03-24T12:48:15.710Z,63.31
2019-03-24T12:49:15.348Z,63.40
2019-03-24T12:50:15.436Z,63.21
2019-03-24T12:51:15.466Z,63.31
2019-03-24T12:52:15.518Z,63.21
2019-03-24T12:53:15.532Z,63.02
2019-03-24T12:54:15.515Z,63.21
2019-03-24T12:55:15.901Z,63.12
2019-03-24T12:56:15.588Z,63.31
2019-03-24T12:57:15.780Z,63.31
2019-03-24T12:58:15.712Z,63.31
2019-03-24T12:59:15.747Z,63.31
2019-03-24T13:00:15.776Z,63.40
2019-03-24T13:01:15.756Z,63.02
2019-03-24T13:02:16.140Z,63.40
2019-03-24T13:03:15.823Z,63.21
2019-03-24T13:04:15.914Z,63.02
2019-03-24T13:05:15.952Z,63.31
2019-03-24T13:06:15.979Z,62.92
2019-03-24T13:07:16.014Z,63.31
2019-03-24T13:08:16.002Z,63.31
2019-03-24T13:09:16.391Z,63.43
2019-03-24T13:10:16.107Z,63.31
2019-03-24T13:11:16.099Z,63.05
2019-03-24T13:12:16.181Z,63.12
2019-03-24T13:13:16.228Z,63.05
2019-03-24T13:14:16.201Z,63.12
2019-03-24T13:15:16.582Z,62.95
2019-03-24T13:16:16.280Z,63.02
2019-03-24T13:17:16.357Z,63.02
2019-03-24T13:18:16.354Z,63.24
2019-03-24T13:19:16.371Z,62.92
2019-03-24T13:20:26.739Z,62.92
2019-03-24T13:21:16.805Z,63.02
2019-03-24T13:22:16.524Z,63.15
2019-03-24T13:23:16.522Z,63.02
2019-03-24T13:24:16.541Z,62.37
2019-03-24T13:25:16.634Z,62.57
2019-03-24T13:26:16.672Z,62.47